Time;durP1;ratioP1;P1;durP2;ratioP2;P2;SDS_P1;SDS_P2;PMS_P1;PMS_P2;Temp;Humidity;BMP_temperature;BMP_pressure;BME280_temperature;BME280_humidity;BME280_pressure;Samples;Min_cycle;Max_cycle;Signal;HPM_P1;HPM_P2
2022/02/22 00:01:43;;;;;;;18.75;3.80;;;6.60;99.90;;;;;;4997168;28;20501;-61
2022/02/22 00:04:09;;;;;;;10.32;2.85;;;6.70;99.90;;;;;;4988688;28;20125;-61
2022/02/22 00:06:36;;;;;;;20.40;3.22;;;6.70;99.90;;;;;;4998422;28;20141;-61
2022/02/22 00:09:03;;;;;;;23.10;4.07;;;6.70;99.90;;;;;;4988559;28;20088;-61
2022/02/22 00:11:30;;;;;;;15.02;3.33;;;6.70;99.90;;;;;;4998748;28;20129;-61
2022/02/22 00:13:57;;;;;;;20.05;4.50;;;6.60;99.90;;;;;;4987736;28;20137;-61
2022/02/22 00:16:23;;;;;;;19.80;4.22;;;6.50;99.90;;;;;;5000653;28;20160;-61
2022/02/22 00:18:50;;;;;;;20.52;3.22;;;6.60;99.90;;;;;;4989353;28;20050;-61
2022/02/22 00:21:17;;;;;;;26.35;5.15;;;6.60;99.90;;;;;;5001131;28;20053;-61
2022/02/22 00:23:44;;;;;;;24.88;3.50;;;6.70;99.90;;;;;;4993287;28;20480;-61
2022/02/22 00:26:11;;;;;;;19.40;4.88;;;6.60;99.90;;;;;;4995463;28;20137;-61
2022/02/22 00:28:38;;;;;;;29.38;4.65;;;6.60;99.90;;;;;;5010785;28;20132;-61
2022/02/22 00:31:05;;;;;;;27.42;4.05;;;6.50;99.90;;;;;;5004149;28;20082;-60
2022/02/22 00:33:33;;;;;;;18.98;3.63;;;6.40;99.90;;;;;;5008496;28;20088;-61
2022/02/22 00:36:00;;;;;;;24.73;4.35;;;6.50;99.90;;;;;;5006181;28;20046;-61
2022/02/22 00:38:26;;;;;;;26.02;3.63;;;6.50;99.90;;;;;;5006117;28;20137;-60
2022/02/22 00:40:56;;;;;;;12.82;3.15;;;6.50;99.90;;;;;;5008096;28;20128;-60
2022/02/22 00:43:22;;;;;;;19.73;4.13;;;6.40;99.90;;;;;;5004035;28;20089;-60
2022/02/22 00:45:49;;;;;;;16.55;3.55;;;6.40;99.90;;;;;;5009600;28;20100;-60
2022/02/22 00:48:16;;;;;;;28.70;3.60;;;6.40;99.90;;;;;;5001762;28;20149;-61
2022/02/22 00:50:43;;;;;;;21.80;4.25;;;6.40;99.90;;;;;;4993319;28;20085;-61
2022/02/22 00:53:10;;;;;;;17.63;5.10;;;6.40;99.90;;;;;;4983552;28;20045;-61
2022/02/22 00:55:37;;;;;;;17.88;3.30;;;6.40;99.90;;;;;;5010364;28;20104;-60
2022/02/22 00:58:04;;;;;;;21.52;3.83;;;6.40;99.90;;;;;;5003507;28;20137;-61
2022/02/22 01:00:30;;;;;;;20.58;3.63;;;6.40;99.90;;;;;;4992488;28;20125;-61
2022/02/22 01:02:57;;;;;;;20.23;3.45;;;6.40;99.90;;;;;;4989280;28;20050;-61
2022/02/22 01:05:24;;;;;;;19.00;3.78;;;6.40;99.90;;;;;;5011724;28;20042;-61
2022/02/22 01:07:51;;;;;;;25.85;3.70;;;6.40;99.90;;;;;;4998863;28;20105;-62
2022/02/22 01:10:18;;;;;;;21.13;5.10;;;6.40;99.90;;;;;;5011490;28;20129;-61
2022/02/22 01:12:44;;;;;;;17.35;3.60;;;6.40;99.90;;;;;;5001183;28;20145;-61
2022/02/22 01:15:11;;;;;;;22.42;4.32;;;6.40;99.90;;;;;;5009915;28;20084;-61
2022/02/22 01:17:38;;;;;;;22.25;4.18;;;6.40;99.90;;;;;;5003291;28;20569;-61
2022/02/22 01:20:07;;;;;;;17.10;4.05;;;6.30;99.90;;;;;;5007751;28;20069;-61
2022/02/22 01:22:34;;;;;;;23.95;4.47;;;6.40;99.90;;;;;;5005116;28;20050;-61
2022/02/22 01:25:02;;;;;;;18.60;3.55;;;6.40;99.90;;;;;;5005018;28;20513;-61
2022/02/22 01:27:29;;;;;;;24.77;4.22;;;6.40;99.90;;;;;;4982908;28;20049;-61
2022/02/22 01:29:56;;;;;;;30.77;5.13;;;6.40;99.90;;;;;;4999807;28;20089;-61
2022/02/22 01:32:22;;;;;;;17.88;3.33;;;6.40;99.90;;;;;;4992994;28;20524;-60
2022/02/22 01:34:49;;;;;;;15.60;3.60;;;6.40;99.90;;;;;;5002207;28;20105;-61
2022/02/22 01:37:16;;;;;;;18.98;3.38;;;6.50;99.90;;;;;;4992431;28;20512;-60
2022/02/22 01:39:43;;;;;;;12.57;4.50;;;6.50;99.90;;;;;;5002612;28;20129;-61
2022/02/22 01:42:10;;;;;;;26.83;4.28;;;6.50;99.90;;;;;;4975057;28;20130;-60
2022/02/22 01:44:37;;;;;;;18.33;4.88;;;6.50;99.90;;;;;;5002809;28;20688;-60
2022/02/22 01:47:07;;;;;;;11.95;3.35;;;6.60;99.90;;;;;;4991176;28;20137;-61
2022/02/22 01:49:34;;;;;;;21.33;4.45;;;6.70;99.90;;;;;;4650632;28;9999966;-61
2022/02/22 01:52:02;;;;;;;19.85;4.18;;;6.70;99.90;;;;;;4988418;28;20524;-61
2022/02/22 01:54:29;;;;;;;26.58;3.80;;;6.70;99.90;;;;;;4983918;28;20180;-61
2022/02/22 01:56:56;;;;;;;24.42;4.78;;;6.80;99.90;;;;;;4993386;28;20070;-61
2022/02/22 01:59:22;;;;;;;26.30;3.90;;;6.80;99.90;;;;;;4998963;28;20513;-61
2022/02/22 02:01:49;;;;;;;24.75;4.05;;;6.80;99.90;;;;;;5009578;28;20073;-61
2022/02/22 02:04:16;;;;;;;27.70;5.32;;;6.70;99.90;;;;;;5001277;28;20080;-61
2022/02/22 02:06:43;;;;;;;26.50;4.72;;;6.80;99.90;;;;;;5007353;28;20420;-60
2022/02/22 02:09:10;;;;;;;22.02;6.22;;;6.80;99.90;;;;;;5003704;28;20042;-61
2022/02/22 02:11:47;;;;;;;35.65;5.65;;;6.80;99.90;;;;;;5005124;28;20064;-61
2022/02/22 02:14:14;;;;;;;24.80;4.55;;;6.80;99.90;;;;;;5004211;28;20426;-61
2022/02/22 02:16:41;;;;;;;26.77;4.68;;;6.80;99.90;;;;;;5004159;28;20136;-61
2022/02/22 02:19:15;;;;;;;29.35;6.68;;;6.80;99.90;;;;;;5006110;28;20066;-61
2022/02/22 02:21:42;;;;;;;31.80;5.25;;;6.90;99.90;;;;;;5002778;28;20077;-61
2022/02/22 02:24:18;;;;;;;31.90;6.38;;;6.90;99.90;;;;;;5007680;28;20061;-61
2022/02/22 02:26:45;;;;;;;28.58;5.13;;;7.00;99.90;;;;;;5001667;28;20140;-61
2022/02/22 02:29:14;;;;;;;38.72;6.72;;;7.00;99.90;;;;;;5008331;28;20128;-61
2022/02/22 02:31:42;;;;;;;30.27;6.03;;;6.90;99.90;;;;;;5010273;28;20077;-60
2022/02/22 02:34:09;;;;;;;34.13;5.05;;;7.00;99.90;;;;;;5008489;28;20069;-60
2022/02/22 02:36:37;;;;;;;26.23;6.80;;;7.00;99.90;;;;;;4999298;28;20077;-60
2022/02/22 02:39:05;;;;;;;32.15;7.28;;;7.00;99.90;;;;;;4991668;28;20556;-60
2022/02/22 02:41:32;;;;;;;42.47;6.90;;;7.00;99.90;;;;;;5001690;28;20046;-61
2022/02/22 02:44:09;;;;;;;37.45;5.18;;;7.00;99.90;;;;;;4990547;28;20053;-61
2022/02/22 02:46:37;;;;;;;30.45;5.68;;;7.00;99.90;;;;;;5001300;28;20497;-61
2022/02/22 02:49:04;;;;;;;52.28;7.43;;;7.00;99.90;;;;;;5006724;28;20050;-61
2022/02/22 02:51:31;;;;;;;42.25;6.78;;;7.00;99.90;;;;;;4986013;28;20085;-61
2022/02/22 02:53:58;;;;;;;38.10;7.05;;;7.10;99.90;;;;;;4990584;28;20077;-60
2022/02/22 02:56:25;;;;;;;46.38;6.38;;;7.10;99.90;;;;;;5002291;28;20057;-60
2022/02/22 02:58:53;;;;;;;47.95;6.15;;;7.10;99.90;;;;;;4973216;28;20453;-60
2022/02/22 03:01:20;;;;;;;40.30;7.43;;;7.10;99.90;;;;;;4999980;28;20073;-60
2022/02/22 03:03:47;;;;;;;44.88;7.85;;;7.20;99.90;;;;;;4992384;28;20133;-60
2022/02/22 03:06:13;;;;;;;59.47;9.70;;;7.20;99.90;;;;;;4997555;28;20085;-61
2022/02/22 03:08:40;;;;;;;45.38;8.18;;;7.20;99.90;;;;;;4994505;28;20153;-60
2022/02/22 03:11:07;;;;;;;40.42;6.85;;;7.20;99.90;;;;;;4995361;28;20069;-61
2022/02/22 03:13:34;;;;;;;45.25;10.27;;;7.40;99.90;;;;;;4996541;28;20624;-61
2022/02/22 03:16:00;;;;;;;41.58;6.40;;;7.30;99.90;;;;;;4993295;28;20078;-62
2022/02/22 03:18:27;;;;;;;49.58;9.45;;;7.40;99.90;;;;;;5003737;28;20041;-62
2022/02/22 03:20:54;;;;;;;58.67;8.00;;;7.40;99.90;;;;;;5005747;28;20073;-62
2022/02/22 03:23:21;;;;;;;38.47;8.23;;;7.40;99.90;;;;;;4983457;28;20073;-62
2022/02/22 03:25:48;;;;;;;40.30;6.85;;;7.40;99.90;;;;;;4991359;28;20096;-62
2022/02/22 03:28:16;;;;;;;46.15;6.28;;;7.40;99.90;;;;;;4983178;28;20157;-62
2022/02/22 03:30:42;;;;;;;36.15;6.78;;;7.40;99.90;;;;;;4990421;28;20130;-62
2022/02/22 03:33:10;;;;;;;28.58;6.32;;;7.50;99.90;;;;;;5001382;28;20080;-62
2022/02/22 03:35:39;;;;;;;42.78;8.40;;;7.50;99.90;;;;;;4990012;28;20046;-62
2022/02/22 03:38:05;;;;;;;38.00;7.28;;;7.50;99.90;;;;;;4984617;28;20077;-62
2022/02/22 03:40:33;;;;;;;25.13;5.60;;;7.40;99.90;;;;;;4990077;28;20085;-62
2022/02/22 03:43:00;;;;;;;36.97;6.43;;;7.40;99.90;;;;;;5002041;28;20151;-62
2022/02/22 03:45:28;;;;;;;35.05;5.90;;;7.50;99.90;;;;;;4989700;28;20042;-62
2022/02/22 03:47:55;;;;;;;50.33;7.53;;;7.50;99.90;;;;;;4999629;28;20145;-61
2022/02/22 03:50:22;;;;;;;50.10;10.57;;;7.50;99.90;;;;;;4991227;28;20074;-62
2022/02/22 03:52:49;;;;;;;39.03;6.43;;;7.50;99.90;;;;;;4997667;28;20050;-62
2022/02/22 03:55:16;;;;;;;52.90;6.88;;;7.60;99.90;;;;;;4993405;28;20085;-62
2022/02/22 03:57:42;;;;;;;50.38;9.73;;;7.70;99.90;;;;;;4995591;28;20473;-61
2022/02/22 04:00:14;;;;;;;43.67;6.75;;;7.60;99.90;;;;;;4996712;28;20466;-61
2022/02/22 04:02:42;;;;;;;44.10;7.03;;;7.70;99.90;;;;;;5000390;28;20046;-61
2022/02/22 04:05:09;;;;;;;40.55;7.65;;;7.70;99.90;;;;;;5026261;28;20081;-62
2022/02/22 04:07:36;;;;;;;47.70;9.60;;;7.70;99.90;;;;;;5018762;28;20206;-61
2022/02/22 04:10:04;;;;;;;44.70;9.82;;;7.70;99.90;;;;;;5000534;28;20089;-61
2022/02/22 04:12:31;;;;;;;33.47;6.72;;;7.60;99.90;;;;;;4992045;28;20076;-60
2022/02/22 04:14:58;;;;;;;45.13;7.95;;;7.60;99.90;;;;;;5001337;28;20434;-62
2022/02/22 04:17:24;;;;;;;47.42;8.50;;;7.70;99.90;;;;;;4990488;28;20046;-61
2022/02/22 04:19:52;;;;;;;37.28;6.97;;;7.60;99.90;;;;;;5000507;28;20104;-61
2022/02/22 04:22:19;;;;;;;41.65;7.07;;;7.70;99.90;;;;;;4989448;28;20471;-62
2022/02/22 04:24:48;;;;;;;36.25;7.03;;;7.60;99.90;;;;;;5001631;28;20121;-62
2022/02/22 04:27:15;;;;;;;30.73;6.47;;;7.70;99.90;;;;;;5000956;28;20108;-60
2022/02/22 04:29:41;;;;;;;37.70;7.03;;;7.70;99.90;;;;;;4996389;28;20146;-60
2022/02/22 04:32:08;;;;;;;46.95;6.85;;;7.60;99.90;;;;;;5008921;28;20108;-60
2022/02/22 04:34:35;;;;;;;41.10;7.25;;;7.70;99.90;;;;;;4996986;28;20497;-61
2022/02/22 04:37:02;;;;;;;43.58;6.28;;;7.70;99.90;;;;;;5008629;28;20092;-61
2022/02/22 04:39:29;;;;;;;30.90;5.65;;;7.70;99.90;;;;;;4999201;28;20096;-61
2022/02/22 04:41:56;;;;;;;59.08;8.88;;;7.60;99.90;;;;;;5006594;28;20472;-61
2022/02/22 04:44:23;;;;;;;45.78;6.72;;;7.60;99.90;;;;;;5001658;28;20137;-61
2022/02/22 04:46:50;;;;;;;59.58;9.02;;;7.60;99.90;;;;;;5004293;28;20049;-61
2022/02/22 04:49:17;;;;;;;34.95;6.95;;;7.50;99.90;;;;;;5000478;28;20205;-61
2022/02/22 04:51:44;;;;;;;39.78;6.47;;;7.50;99.90;;;;;;5002276;28;20084;-60
2022/02/22 04:54:11;;;;;;;37.72;6.68;;;7.50;99.90;;;;;;4989461;28;20488;-61
2022/02/22 04:56:37;;;;;;;34.13;6.45;;;7.50;99.90;;;;;;5000432;28;20609;-61
2022/02/22 04:59:04;;;;;;;48.60;7.03;;;7.40;99.90;;;;;;5008266;28;20137;-61
2022/02/22 05:01:31;;;;;;;34.25;6.60;;;7.40;99.90;;;;;;4999139;28;20108;-61
2022/02/22 05:03:58;;;;;;;37.38;6.35;;;7.40;99.90;;;;;;5008125;28;20054;-61
2022/02/22 05:06:25;;;;;;;37.65;5.80;;;7.50;99.90;;;;;;4997545;28;20093;-61
2022/02/22 05:08:52;;;;;;;33.83;6.10;;;7.40;99.90;;;;;;5010887;28;20088;-61
2022/02/22 05:11:19;;;;;;;47.92;9.15;;;7.50;99.90;;;;;;5004418;28;20126;-61
2022/02/22 05:13:45;;;;;;;35.55;5.95;;;7.40;99.90;;;;;;4992575;28;20090;-61
2022/02/22 05:16:12;;;;;;;42.97;6.43;;;7.50;99.90;;;;;;5004254;28;20083;-60
2022/02/22 05:18:39;;;;;;;44.22;8.85;;;7.50;99.90;;;;;;5003712;28;20050;-61
2022/02/22 05:21:06;;;;;;;34.00;5.00;;;7.60;99.90;;;;;;5000329;28;20129;-61
2022/02/22 05:23:35;;;;;;;33.40;7.57;;;7.60;99.90;;;;;;5011083;28;20085;-61
2022/02/22 05:26:06;;;;;;;32.83;5.30;;;7.60;99.90;;;;;;5001806;28;20046;-60
2022/02/22 05:28:33;;;;;;;29.13;6.38;;;7.60;99.90;;;;;;5009349;28;20054;-60
2022/02/22 05:30:59;;;;;;;32.13;6.18;;;7.60;99.90;;;;;;5003902;28;20165;-61
2022/02/22 05:33:26;;;;;;;39.85;6.97;;;7.60;99.90;;;;;;5006865;28;20081;-61
2022/02/22 05:35:53;;;;;;;28.42;5.70;;;7.70;99.90;;;;;;5006181;28;20133;-61
2022/02/22 05:38:20;;;;;;;29.88;5.20;;;7.70;99.90;;;;;;5004270;28;20085;-61
2022/02/22 05:40:47;;;;;;;40.85;6.75;;;7.70;99.90;;;;;;4990024;28;20130;-60
2022/02/22 05:43:13;;;;;;;28.73;4.68;;;7.80;99.90;;;;;;5000760;28;20513;-62
2022/02/22 05:45:41;;;;;;;35.80;7.47;;;7.80;99.90;;;;;;4993202;28;20042;-61
2022/02/22 05:48:10;;;;;;;35.28;5.60;;;7.90;99.90;;;;;;5000036;28;20078;-61
2022/02/22 05:50:38;;;;;;;22.75;4.30;;;7.90;99.90;;;;;;5009775;28;20135;-61
2022/02/22 05:53:05;;;;;;;27.15;5.38;;;7.90;99.90;;;;;;5000448;28;20077;-60
2022/02/22 05:55:32;;;;;;;19.20;5.05;;;8.00;99.90;;;;;;5009821;28;20092;-60
2022/02/22 05:57:59;;;;;;;29.52;5.85;;;8.00;99.90;;;;;;4985844;28;20137;-61
2022/02/22 06:00:26;;;;;;;27.55;6.05;;;8.00;99.90;;;;;;4991403;28;20090;-62
2022/02/22 06:02:52;;;;;;;26.38;5.22;;;8.10;99.90;;;;;;5003682;28;20049;-61
2022/02/22 06:05:19;;;;;;;29.60;5.22;;;8.10;99.90;;;;;;4991148;28;20082;-61
2022/02/22 06:07:46;;;;;;;25.83;4.55;;;8.10;99.90;;;;;;5003210;28;20089;-61
2022/02/22 06:10:14;;;;;;;23.23;3.88;;;8.20;99.90;;;;;;5010761;28;20046;-61
2022/02/22 06:12:44;;;;;;;30.40;4.78;;;8.20;99.90;;;;;;5000587;28;20087;-61
2022/02/22 06:15:12;;;;;;;19.63;4.00;;;8.20;99.90;;;;;;5008979;28;20128;-61
2022/02/22 06:17:40;;;;;;;26.45;5.25;;;8.20;99.90;;;;;;5004885;28;20128;-61
2022/02/22 06:20:08;;;;;;;27.80;5.30;;;8.30;99.90;;;;;;5009834;28;20137;-61
2022/02/22 06:22:35;;;;;;;29.98;4.43;;;8.30;99.90;;;;;;5003712;28;20132;-61
2022/02/22 06:25:04;;;;;;;30.52;4.57;;;8.30;99.90;;;;;;5005111;28;20081;-62
2022/02/22 06:27:30;;;;;;;26.58;5.22;;;8.40;99.90;;;;;;5005491;28;20548;-62
2022/02/22 06:29:57;;;;;;;26.52;5.72;;;8.40;99.90;;;;;;5002755;28;20085;-62
2022/02/22 06:32:24;;;;;;;23.08;4.05;;;8.50;99.90;;;;;;5007777;28;20125;-62
2022/02/22 06:34:51;;;;;;;24.02;4.85;;;8.50;99.90;;;;;;4976645;28;20133;-62
2022/02/22 06:37:18;;;;;;;26.80;5.32;;;8.50;99.90;;;;;;4991410;28;20054;-61
2022/02/22 06:39:45;;;;;;;18.70;3.70;;;8.50;99.90;;;;;;5001988;28;20088;-62
2022/02/22 06:42:12;;;;;;;29.65;4.93;;;8.50;99.90;;;;;;5000991;28;20069;-62
2022/02/22 06:44:39;;;;;;;21.95;3.72;;;8.60;99.90;;;;;;4999434;28;20081;-62
2022/02/22 06:47:06;;;;;;;23.88;4.82;;;8.60;99.90;;;;;;5010117;28;20081;-62
2022/02/22 06:49:32;;;;;;;38.63;6.30;;;8.60;99.90;;;;;;5002043;28;20081;-62
2022/02/22 06:51:59;;;;;;;23.58;4.57;;;8.70;99.90;;;;;;4990746;28;20525;-62
2022/02/22 06:54:26;;;;;;;20.83;5.13;;;8.70;99.90;;;;;;5002442;28;20050;-62
2022/02/22 06:56:53;;;;;;;28.95;4.85;;;8.70;99.90;;;;;;4990624;28;20082;-62
2022/02/22 06:59:19;;;;;;;24.70;4.50;;;8.80;99.90;;;;;;4997962;28;20064;-63
2022/02/22 07:01:46;;;;;;;19.00;3.78;;;8.70;99.90;;;;;;5005982;28;20140;-64
2022/02/22 07:04:13;;;;;;;21.70;4.72;;;8.70;99.90;;;;;;5000623;28;20085;-62
2022/02/22 07:06:39;;;;;;;30.85;4.80;;;8.70;99.90;;;;;;5006044;28;20532;-62
2022/02/22 07:09:06;;;;;;;21.60;4.10;;;8.70;99.90;;;;;;5003111;28;20141;-63
2022/02/22 07:11:33;;;;;;;20.42;4.00;;;8.70;99.90;;;;;;5002307;28;20509;-62
2022/02/22 07:14:00;;;;;;;22.40;4.25;;;8.70;99.90;;;;;;5005440;28;20077;-61
2022/02/22 07:16:27;;;;;;;28.42;4.63;;;8.70;99.90;;;;;;5001200;28;20077;-61
2022/02/22 07:18:54;;;;;;;25.60;4.80;;;8.70;99.90;;;;;;5006940;28;20107;-61
2022/02/22 07:21:21;;;;;;;31.65;4.82;;;8.80;99.90;;;;;;4998366;28;20049;-62
2022/02/22 07:23:47;;;;;;;20.50;4.40;;;8.80;99.90;;;;;;5007694;28;20133;-63
2022/02/22 07:26:16;;;;;;;29.73;4.13;;;8.80;99.90;;;;;;4998192;28;20140;-64
2022/02/22 07:28:43;;;;;;;23.02;4.75;;;8.80;99.90;;;;;;4999918;28;20086;-63
2022/02/22 07:31:11;;;;;;;20.17;3.70;;;8.80;99.90;;;;;;4999010;28;20137;-63
2022/02/22 07:33:39;;;;;;;19.42;3.55;;;8.90;99.90;;;;;;5000052;28;20054;-63
2022/02/22 07:36:06;;;;;;;19.27;3.47;;;8.90;99.90;;;;;;4997983;28;20133;-61
2022/02/22 07:38:33;;;;;;;22.20;4.00;;;8.90;99.90;;;;;;4998663;28;20049;-62
2022/02/22 07:41:00;;;;;;;17.55;3.35;;;8.90;99.90;;;;;;4980274;28;20082;-61
2022/02/22 07:43:27;;;;;;;14.88;2.75;;;9.00;99.90;;;;;;4980759;28;20160;-62
2022/02/22 07:45:54;;;;;;;17.23;4.50;;;9.00;99.90;;;;;;4996382;28;20077;-61
2022/02/22 07:48:22;;;;;;;17.73;3.42;;;9.10;99.90;;;;;;5000589;28;20078;-61
2022/02/22 07:50:49;;;;;;;19.00;3.75;;;9.10;99.90;;;;;;4998763;28;20093;-61
2022/02/22 07:53:15;;;;;;;27.40;4.50;;;9.10;99.90;;;;;;4997734;28;20070;-61
2022/02/22 07:55:44;;;;;;;20.83;3.25;;;9.20;99.90;;;;;;4995738;28;20038;-62
2022/02/22 07:58:11;;;;;;;27.85;4.05;;;9.20;99.90;;;;;;4998630;28;20081;-61
2022/02/22 08:00:39;;;;;;;20.60;4.43;;;9.30;99.90;;;;;;4996052;28;20129;-63
2022/02/22 08:03:06;;;;;;;26.45;4.82;;;9.30;99.90;;;;;;4997600;28;20522;-62
2022/02/22 08:05:34;;;;;;;19.00;3.58;;;9.40;99.90;;;;;;4995325;28;20134;-61
2022/02/22 08:08:02;;;;;;;14.95;2.97;;;9.40;99.90;;;;;;4998232;28;20490;-61
2022/02/22 08:10:28;;;;;;;24.38;3.13;;;9.40;99.90;;;;;;4996837;28;20149;-61
2022/02/22 08:12:56;;;;;;;10.98;3.45;;;9.50;99.90;;;;;;4991935;28;20132;-62
2022/02/22 08:15:23;;;;;;;19.35;3.60;;;9.50;99.90;;;;;;4995661;28;20050;-62
2022/02/22 08:17:51;;;;;;;26.50;5.75;;;9.60;99.90;;;;;;4998108;28;20112;-62
2022/02/22 08:20:18;;;;;;;16.42;2.92;;;9.60;99.90;;;;;;5007168;28;20054;-62
2022/02/22 08:22:45;;;;;;;21.70;4.07;;;9.60;99.90;;;;;;4995798;28;20042;-63
2022/02/22 08:25:11;;;;;;;15.02;3.90;;;9.70;99.90;;;;;;5006548;28;20146;-61
2022/02/22 08:27:38;;;;;;;20.83;4.55;;;9.70;99.90;;;;;;4994778;28;20117;-61
2022/02/22 08:30:06;;;;;;;18.27;4.45;;;9.80;99.90;;;;;;5008141;28;20046;-62
2022/02/22 08:32:33;;;;;;;10.55;2.97;;;9.80;99.90;;;;;;4995810;28;20077;-61
2022/02/22 08:34:59;;;;;;;10.85;2.55;;;9.80;99.90;;;;;;5007919;28;20046;-62
2022/02/22 08:37:26;;;;;;;17.23;3.33;;;10.00;99.90;;;;;;4997979;28;20054;-61
2022/02/22 08:39:56;;;;;;;12.52;4.63;;;9.90;99.90;;;;;;5006117;28;20077;-62
2022/02/22 08:42:23;;;;;;;21.70;2.85;;;10.00;99.90;;;;;;4999951;28;20047;-61
2022/02/22 08:45:10;;;;;;;17.95;3.58;;;10.10;99.90;;;;;;5009730;28;20542;-63
2022/02/22 08:47:37;;;;;;;20.15;2.80;;;10.10;99.90;;;;;;5007529;28;20496;-63
2022/02/22 08:50:04;;;;;;;13.23;3.08;;;10.20;99.90;;;;;;4995325;28;20046;-63
2022/02/22 08:52:31;;;;;;;13.43;2.78;;;10.30;99.90;;;;;;4997949;28;20073;-63
2022/02/22 08:55:00;;;;;;;20.98;3.50;;;10.40;99.90;;;;;;4998007;28;20050;-62
2022/02/22 08:57:27;;;;;;;12.57;3.10;;;10.40;99.90;;;;;;4995729;28;20524;-62
2022/02/22 08:59:54;;;;;;;20.05;3.13;;;10.40;99.90;;;;;;4999805;28;20117;-61
2022/02/22 09:02:21;;;;;;;15.38;3.63;;;10.50;99.90;;;;;;4993507;28;20053;-59
2022/02/22 09:04:48;;;;;;;19.13;5.05;;;10.50;99.90;;;;;;5002612;28;20058;-59
2022/02/22 09:07:15;;;;;;;19.40;3.67;;;10.50;99.90;;;;;;4995337;28;20050;-61
2022/02/22 09:09:42;;;;;;;16.13;3.53;;;10.60;99.90;;;;;;5000500;28;20058;-62
2022/02/22 09:12:09;;;;;;;16.45;2.88;;;10.70;99.90;;;;;;5009999;28;20046;-62
2022/02/22 09:14:36;;;;;;;17.55;2.40;;;10.70;99.90;;;;;;5000112;28;20095;-61
2022/02/22 09:17:05;;;;;;;26.45;3.38;;;10.80;99.90;;;;;;5011280;28;20042;-61
2022/02/22 09:19:32;;;;;;;20.15;4.72;;;10.80;99.90;;;;;;4998282;28;20046;-62
2022/02/22 09:21:59;;;;;;;16.73;4.05;;;10.80;99.90;;;;;;4993561;28;20513;-63
2022/02/22 09:24:26;;;;;;;19.77;4.88;;;10.90;99.90;;;;;;4998220;28;20058;-62
2022/02/22 09:26:53;;;;;;;13.57;3.35;;;10.90;99.90;;;;;;5011287;28;20054;-63
2022/02/22 09:29:20;;;;;;;23.60;5.13;;;10.90;99.90;;;;;;4999569;28;20046;-63
2022/02/22 09:31:49;;;;;;;20.63;6.75;;;10.90;99.90;;;;;;5010019;28;20050;-63
2022/02/22 09:34:16;;;;;;;26.60;4.32;;;11.00;99.90;;;;;;5001176;28;20049;-64
2022/02/22 09:36:43;;;;;;;19.67;3.38;;;11.00;99.90;;;;;;5007757;28;20045;-62
2022/02/22 09:39:10;;;;;;;17.33;3.70;;;11.10;99.90;;;;;;5006262;28;20065;-63
2022/02/22 09:41:37;;;;;;;20.40;4.75;;;11.10;99.90;;;;;;4996483;28;20073;-62
2022/02/22 09:44:04;;;;;;;20.23;4.28;;;11.10;99.90;;;;;;4995505;28;20046;-61
2022/02/22 09:46:31;;;;;;;20.08;3.13;;;11.20;99.90;;;;;;4998349;28;20051;-61
2022/02/22 09:48:58;;;;;;;34.20;4.82;;;11.30;99.90;;;;;;4975657;28;20050;-65
2022/02/22 09:51:25;;;;;;;24.13;3.72;;;11.40;99.90;;;;;;5000578;28;20054;-62
2022/02/22 09:53:52;;;;;;;23.25;3.92;;;11.50;99.90;;;;;;4991824;28;20042;-62
2022/02/22 09:56:24;;;;;;;22.52;3.85;;;11.60;99.90;;;;;;5000745;28;20043;-62
2022/02/22 09:58:51;;;;;;;21.77;3.47;;;11.70;99.90;;;;;;4974657;28;20082;-63
2022/02/22 10:01:18;;;;;;;21.83;3.83;;;11.80;99.90;;;;;;5001047;28;20054;-61
2022/02/22 10:03:55;;;;;;;23.15;4.90;;;11.80;99.90;;;;;;4990851;28;20133;-62
2022/02/22 10:06:23;;;;;;;23.75;5.07;;;11.90;99.90;;;;;;4987844;28;20108;-65
2022/02/22 10:08:54;;;;;;;13.00;2.90;;;11.90;99.90;;;;;;5002906;28;20082;-62
2022/02/22 10:11:21;;;;;;;23.80;2.83;;;12.00;99.90;;;;;;5002121;28;20115;-63
2022/02/22 10:13:48;;;;;;;15.55;3.80;;;12.00;99.90;;;;;;4990627;28;20053;-63
2022/02/22 10:16:15;;;;;;;29.33;4.68;;;12.10;99.90;;;;;;5002290;28;20046;-63
2022/02/22 10:18:49;;;;;;;20.27;4.68;;;12.20;99.90;;;;;;4990835;28;20050;-62
2022/02/22 10:21:18;;;;;;;14.38;3.72;;;12.10;99.90;;;;;;5000821;28;20107;-61
2022/02/22 10:23:44;;;;;;;16.33;3.30;;;12.20;99.90;;;;;;4990885;28;20640;-61
2022/02/22 10:26:23;;;;;;;18.10;4.32;;;12.20;99.90;;;;;;5001037;28;20263;-62
2022/02/22 10:28:50;;;;;;;18.23;4.30;;;12.30;99.90;;;;;;4990360;28;20057;-63
2022/02/22 10:31:17;;;;;;;13.02;3.05;;;12.40;99.90;;;;;;4999964;28;20053;-61
2022/02/22 10:33:44;;;;;;;20.85;3.80;;;12.30;99.90;;;;;;4992880;28;20047;-62
2022/02/22 10:36:32;;;;;;;16.70;3.33;;;12.30;99.90;;;;;;5000354;28;20092;-64
2022/02/22 10:39:09;;;;;;;18.95;4.50;;;12.30;99.90;;;;;;5009775;28;20049;-62
2022/02/22 10:41:41;;;;;;;19.48;4.53;;;12.40;99.80;;;;;;4999278;28;20077;-62
2022/02/22 10:44:09;;;;;;;17.98;3.92;;;12.50;99.70;;;;;;5008129;28;20049;-64
2022/02/22 10:46:40;;;;;;;18.98;5.00;;;12.60;99.70;;;;;;5000778;28;20504;-62
2022/02/22 10:49:12;;;;;;;24.45;5.38;;;12.80;99.20;;;;;;5006601;28;20558;-63
2022/02/22 10:51:42;;;;;;;14.85;3.35;;;12.90;99.70;;;;;;5001778;28;20097;-63
2022/02/22 10:54:16;;;;;;;17.98;4.10;;;13.00;99.90;;;;;;5005417;28;20476;-62
2022/02/22 10:56:43;;;;;;;25.45;5.03;;;13.10;99.20;;;;;;5002805;28;20093;-63
2022/02/22 10:59:23;;;;;;;17.65;4.72;;;13.10;99.80;;;;;;5018721;28;20050;-62
2022/02/22 11:01:50;;;;;;;20.85;3.95;;;13.20;99.10;;;;;;5002871;28;20504;-63
2022/02/22 11:04:17;;;;;;;17.77;3.67;;;13.20;98.90;;;;;;5003276;28;20046;-63
2022/02/22 11:06:44;;;;;;;25.30;5.45;;;13.20;98.50;;;;;;5006607;28;20058;-63
2022/02/22 11:09:17;;;;;;;23.35;5.53;;;13.30;98.90;;;;;;4991783;28;20077;-63
2022/02/22 11:12:07;;;;;;;17.02;4.63;;;13.40;98.70;;;;;;4988943;28;20042;-63
2022/02/22 11:14:35;;;;;;;22.92;4.75;;;13.30;98.00;;;;;;4985238;28;21074;-66
2022/02/22 11:17:20;;;;;;;23.13;4.90;;;13.50;98.70;;;;;;4987864;28;20046;-62
2022/02/22 11:19:48;;;;;;;23.90;5.18;;;13.60;97.40;;;;;;5002916;28;20050;-62
2022/02/22 11:22:17;;;;;;;20.05;4.10;;;13.60;98.00;;;;;;4971091;28;20096;-63
2022/02/22 11:24:48;;;;;;;17.88;3.72;;;13.60;97.60;;;;;;4997340;28;20105;-62
2022/02/22 11:27:25;;;;;;;19.75;4.75;;;13.50;97.60;;;;;;4991724;28;20489;-62
2022/02/22 11:30:06;;;;;;;17.40;5.97;;;13.50;97.90;;;;;;4997580;28;20503;-63
2022/02/22 11:32:54;;;;;;;24.40;4.13;;;13.40;97.80;;;;;;4999124;28;20073;-63
2022/02/22 11:35:21;;;;;;;37.10;4.40;;;13.40;97.90;;;;;;4985585;28;20691;-61
2022/02/22 11:37:49;;;;;;;19.23;3.90;;;13.40;97.70;;;;;;5003726;28;20080;-62
2022/02/22 11:40:42;;;;;;;15.43;3.63;;;13.40;97.50;;;;;;4980585;28;20077;-62
2022/02/22 11:43:17;;;;;;;22.65;4.65;;;13.30;97.00;;;;;;4991856;28;20054;-64
2022/02/22 11:45:48;;;;;;;24.52;4.50;;;13.30;97.60;;;;;;4994635;28;20841;-63
2022/02/22 11:48:26;;;;;;;28.60;4.03;;;13.30;98.00;;;;;;4971801;28;20042;-63
2022/02/22 11:50:59;;;;;;;25.13;6.03;;;13.30;97.00;;;;;;5002833;28;20088;-62
2022/02/22 11:53:28;;;;;;;19.90;5.18;;;13.30;97.00;;;;;;5002882;28;20042;-63
2022/02/22 11:55:58;;;;;;;10.07;2.85;;;13.30;97.50;;;;;;4984382;28;20077;-63
2022/02/22 11:58:26;;;;;;;27.10;4.47;;;13.40;97.30;;;;;;5004211;28;20440;-63
2022/02/22 12:00:55;;;;;;;17.42;3.90;;;13.40;96.90;;;;;;5000000;28;20129;-61
2022/02/22 12:03:23;;;;;;;17.02;2.85;;;13.40;96.60;;;;;;4988353;28;20045;-64
2022/02/22 12:06:01;;;;;;;17.85;3.42;;;13.50;96.90;;;;;;4997893;28;20049;-62
2022/02/22 12:08:33;;;;;;;22.00;5.13;;;13.60;97.60;;;;;;5005852;28;20046;-62
2022/02/22 12:11:02;;;;;;;17.33;3.53;;;13.60;96.30;;;;;;5008457;28;20468;-64
2022/02/22 12:13:42;;;;;;;17.27;3.47;;;13.70;96.90;;;;;;4988833;28;20421;-62
2022/02/22 12:16:18;;;;;;;20.52;5.63;;;13.70;96.30;;;;;;4997750;28;20054;-62
2022/02/22 12:18:49;;;;;;;22.60;3.92;;;13.70;96.70;;;;;;5009252;28;20042;-61
2022/02/22 12:21:20;;;;;;;23.10;4.57;;;13.70;96.50;;;;;;5001166;28;20207;-62
2022/02/22 12:23:47;;;;;;;21.40;4.22;;;13.60;97.00;;;;;;5010545;28;20120;-61
2022/02/22 12:26:15;;;;;;;23.38;4.45;;;13.60;97.10;;;;;;5001233;28;20503;-62
2022/02/22 12:28:47;;;;;;;23.90;4.03;;;13.50;97.50;;;;;;5010729;28;20053;-62
2022/02/22 12:31:36;;;;;;;16.52;4.20;;;13.50;97.40;;;;;;5003606;28;20336;-62
2022/02/22 12:34:10;;;;;;;20.60;3.03;;;13.50;97.10;;;;;;4993861;28;20082;-62
2022/02/22 12:36:38;;;;;;;17.30;3.42;;;13.50;97.30;;;;;;5004926;28;20133;-62
2022/02/22 12:39:11;;;;;;;24.67;4.65;;;13.40;97.90;;;;;;5008897;28;20060;-63
2022/02/22 12:41:41;;;;;;;19.83;3.70;;;13.40;97.90;;;;;;4982022;28;20057;-63
2022/02/22 12:44:09;;;;;;;19.50;3.50;;;13.40;98.10;;;;;;5010603;28;20100;-63
2022/02/22 12:46:37;;;;;;;20.55;3.80;;;13.40;98.30;;;;;;4993310;28;20050;-62
2022/02/22 12:49:08;;;;;;;23.63;4.30;;;13.40;98.30;;;;;;4974366;28;20081;-66